Time;durP1;ratioP1;P1;durP2;ratioP2;P2;SDS_P1;SDS_P2;PMS_P1;PMS_P2;Temp;Humidity;BMP_temperature;BMP_pressure;BME280_temperature;BME280_humidity;BME280_pressure;Samples;Min_cycle;Max_cycle;Signal;HPM_P1;HPM_P2
2021/05/17 00:01:14;;;;;;;8.70;6.75;;;8.40;99.90;;;;;;5073321;28;20505;-76
2021/05/17 00:03:43;;;;;;;9.40;7.28;;;8.40;99.90;;;;;;5071993;28;20108;-76
2021/05/17 00:06:09;;;;;;;10.13;6.50;;;8.40;99.90;;;;;;5072121;28;20036;-76
2021/05/17 00:08:35;;;;;;;15.05;8.75;;;8.40;99.90;;;;;;5071897;28;20071;-76
2021/05/17 00:11:01;;;;;;;14.40;9.23;;;8.30;99.90;;;;;;5073263;28;20052;-76
2021/05/17 00:13:27;;;;;;;9.40;7.10;;;8.30;99.90;;;;;;5072930;28;20055;-76
2021/05/17 00:15:53;;;;;;;8.23;6.38;;;8.30;99.90;;;;;;5073117;28;20017;-76
2021/05/17 00:18:20;;;;;;;9.82;6.90;;;8.30;99.90;;;;;;5071681;28;20097;-76
2021/05/17 00:20:45;;;;;;;11.60;8.50;;;8.30;99.90;;;;;;5071652;28;20524;-76
2021/05/17 00:23:11;;;;;;;8.93;6.80;;;8.30;99.90;;;;;;5071697;28;20111;-76
2021/05/17 00:25:37;;;;;;;10.02;7.13;;;8.30;99.90;;;;;;5071671;28;20023;-76
2021/05/17 00:28:03;;;;;;;9.18;6.80;;;8.30;99.90;;;;;;5072956;28;20023;-77
2021/05/17 00:30:31;;;;;;;10.82;6.75;;;8.20;99.90;;;;;;5071587;28;20470;-76
2021/05/17 00:32:58;;;;;;;10.95;7.50;;;8.30;99.90;;;;;;5071540;28;20379;-77
2021/05/17 00:35:25;;;;;;;8.35;6.85;;;8.30;99.90;;;;;;5072033;28;20024;-75
2021/05/17 00:37:51;;;;;;;13.52;6.60;;;8.30;99.90;;;;;;5071564;28;20021;-76
2021/05/17 00:40:18;;;;;;;9.88;7.60;;;8.40;99.90;;;;;;5071575;28;20066;-77
2021/05/17 00:42:45;;;;;;;8.02;6.13;;;8.40;99.90;;;;;;5070947;28;20032;-76
2021/05/17 00:45:13;;;;;;;10.52;7.93;;;8.40;99.90;;;;;;5071512;28;20074;-76
2021/05/17 00:47:44;;;;;;;7.28;5.65;;;8.40;99.90;;;;;;5071402;28;20020;-76
2021/05/17 00:50:13;;;;;;;8.68;7.20;;;8.40;99.90;;;;;;5071480;28;20154;-77
2021/05/17 00:52:40;;;;;;;11.70;6.72;;;8.40;99.90;;;;;;5071374;28;20028;-76
2021/05/17 00:55:07;;;;;;;8.80;6.13;;;8.50;99.90;;;;;;5072620;28;20119;-76
2021/05/17 00:57:34;;;;;;;9.25;6.97;;;8.50;99.90;;;;;;5071227;28;20082;-76
2021/05/17 01:00:01;;;;;;;8.75;5.90;;;8.50;99.90;;;;;;5071347;28;20067;-76
2021/05/17 01:02:26;;;;;;;7.28;6.20;;;8.50;99.90;;;;;;5072517;28;20074;-76
2021/05/17 01:04:52;;;;;;;5.53;4.90;;;8.50;99.90;;;;;;5072638;28;20032;-76
2021/05/17 01:07:20;;;;;;;6.97;4.50;;;8.40;99.90;;;;;;5071164;28;20052;-76
2021/05/17 01:09:48;;;;;;;7.03;4.97;;;8.30;99.90;;;;;;5071244;28;20029;-76
2021/05/17 01:12:15;;;;;;;7.57;5.97;;;8.20;99.90;;;;;;5071138;28;20021;-76
2021/05/17 01:14:42;;;;;;;8.73;5.82;;;8.20;99.90;;;;;;5071042;28;20036;-76
2021/05/17 01:17:10;;;;;;;11.02;6.15;;;8.20;99.90;;;;;;5072442;28;20029;-76
2021/05/17 01:19:43;;;;;;;6.85;6.13;;;8.20;99.90;;;;;;5071110;28;20093;-76
2021/05/17 01:22:21;;;;;;;7.93;6.25;;;8.30;99.90;;;;;;5071115;28;20378;-76
2021/05/17 01:24:47;;;;;;;9.02;6.45;;;8.20;99.90;;;;;;5072409;28;20020;-76
2021/05/17 01:27:13;;;;;;;6.15;5.38;;;8.20;99.90;;;;;;5071032;28;20023;-76
2021/05/17 01:29:42;;;;;;;8.05;5.57;;;8.20;99.90;;;;;;5072361;28;20060;-77
2021/05/17 01:32:09;;;;;;;8.00;5.82;;;8.10;99.90;;;;;;5071077;28;20086;-76
2021/05/17 01:34:36;;;;;;;6.72;5.18;;;8.10;99.90;;;;;;5072207;28;20068;-76
2021/05/17 01:37:02;;;;;;;9.07;5.90;;;8.00;99.90;;;;;;5072284;28;20017;-76
2021/05/17 01:39:29;;;;;;;8.18;6.40;;;8.10;99.90;;;;;;5072233;28;20362;-77
2021/05/17 01:41:55;;;;;;;9.05;6.22;;;8.00;99.90;;;;;;5072199;28;20051;-77
2021/05/17 01:44:25;;;;;;;7.03;5.65;;;8.00;99.90;;;;;;5070847;28;20056;-77
2021/05/17 01:46:51;;;;;;;7.50;5.90;;;8.10;99.90;;;;;;5073701;28;20055;-76
2021/05/17 01:49:19;;;;;;;6.68;5.28;;;8.00;99.90;;;;;;5074463;28;20078;-76
2021/05/17 01:51:45;;;;;;;8.70;5.95;;;8.00;99.90;;;;;;5074481;28;20044;-77
2021/05/17 01:54:12;;;;;;;7.40;5.20;;;8.00;99.90;;;;;;5075606;28;20028;-77
2021/05/17 01:56:38;;;;;;;6.97;4.63;;;8.00;99.90;;;;;;5074343;28;20066;-77
2021/05/17 01:59:04;;;;;;;5.10;4.65;;;7.90;99.90;;;;;;5074355;28;20421;-77
2021/05/17 02:01:29;;;;;;;3.72;3.42;;;7.70;99.90;;;;;;5074305;28;20016;-76
2021/05/17 02:03:55;;;;;;;4.25;3.83;;;7.50;99.90;;;;;;5075517;28;20075;-76
2021/05/17 02:06:21;;;;;;;6.63;3.95;;;7.40;99.90;;;;;;5074494;28;20082;-76
2021/05/17 02:08:49;;;;;;;4.70;4.22;;;7.40;99.90;;;;;;5075455;28;20054;-76
2021/05/17 02:11:18;;;;;;;5.15;4.63;;;7.30;99.90;;;;;;5074142;28;20144;-76
2021/05/17 02:13:45;;;;;;;6.72;5.20;;;7.20;99.90;;;;;;5073973;28;20032;-76
2021/05/17 02:16:13;;;;;;;5.63;4.70;;;7.20;99.90;;;;;;5075422;28;20029;-76
2021/05/17 02:18:44;;;;;;;18.95;7.18;;;7.20;99.90;;;;;;5073998;28;20028;-77
2021/05/17 02:21:11;;;;;;;11.68;6.25;;;7.30;99.90;;;;;;5075230;28;20017;-77
2021/05/17 02:23:37;;;;;;;7.30;4.50;;;7.30;99.90;;;;;;5075092;28;20367;-77
2021/05/17 02:26:03;;;;;;;5.78;5.18;;;7.40;99.90;;;;;;5073915;28;20025;-77
2021/05/17 02:28:29;;;;;;;8.10;4.50;;;7.40;99.90;;;;;;5075027;28;20037;-77
2021/05/17 02:30:55;;;;;;;5.57;4.80;;;7.30;99.90;;;;;;5075121;28;20478;-77
2021/05/17 02:33:21;;;;;;;6.43;4.50;;;7.30;99.90;;;;;;5073674;28;20020;-77
2021/05/17 02:35:47;;;;;;;4.95;4.55;;;7.30;99.90;;;;;;5075005;28;20032;-77
2021/05/17 02:38:14;;;;;;;6.97;5.55;;;7.20;99.90;;;;;;5073551;28;20032;-77
2021/05/17 02:40:41;;;;;;;5.75;4.85;;;7.20;99.90;;;;;;5074947;28;20119;-77
2021/05/17 02:43:09;;;;;;;6.82;5.90;;;7.20;99.90;;;;;;5073545;28;20027;-77
2021/05/17 02:45:35;;;;;;;7.18;5.15;;;7.20;99.90;;;;;;5067590;28;20398;-76
2021/05/17 02:48:03;;;;;;;7.28;5.40;;;7.20;99.90;;;;;;5053490;28;20025;-76
2021/05/17 02:50:38;;;;;;;7.95;5.13;;;7.20;99.90;;;;;;5053454;28;20078;-76
2021/05/17 02:53:36;;;;;;;6.78;6.03;;;7.30;99.90;;;;;;5054805;28;20021;-76
2021/05/17 02:56:10;;;;;;;7.63;5.45;;;7.30;99.90;;;;;;5053300;28;20032;-76
2021/05/17 02:58:46;;;;;;;7.95;5.93;;;7.40;99.90;;;;;;5053670;28;20026;-76
2021/05/17 03:01:27;;;;;;;10.70;6.20;;;7.50;99.90;;;;;;5053261;28;20063;-76
2021/05/17 03:03:55;;;;;;;9.43;6.20;;;7.70;99.90;;;;;;5053176;28;20024;-76
2021/05/17 03:06:21;;;;;;;7.75;5.63;;;7.80;99.90;;;;;;5054323;28;20047;-76
2021/05/17 03:09:00;;;;;;;9.23;6.65;;;7.90;99.90;;;;;;5053005;28;20047;-76
2021/05/17 03:11:27;;;;;;;9.30;6.43;;;8.10;99.90;;;;;;5054380;28;20029;-76
2021/05/17 03:13:54;;;;;;;12.20;6.07;;;8.20;99.90;;;;;;5052898;28;20056;-76
2021/05/17 03:16:21;;;;;;;8.90;7.40;;;8.30;99.90;;;;;;5054275;28;20099;-76
2021/05/17 03:18:49;;;;;;;8.30;6.05;;;8.40;99.90;;;;;;5052848;28;20482;-77
2021/05/17 03:21:19;;;;;;;8.50;6.70;;;8.50;99.90;;;;;;5054082;28;20036;-77
2021/05/17 03:23:50;;;;;;;7.40;6.65;;;8.50;99.90;;;;;;5053710;28;20116;-77
2021/05/17 03:26:18;;;;;;;13.35;7.47;;;8.60;99.90;;;;;;5072714;28;20466;-77
2021/05/17 03:28:43;;;;;;;9.93;7.38;;;8.80;99.90;;;;;;5072118;28;20020;-76
2021/05/17 03:31:09;;;;;;;13.48;8.70;;;8.90;99.90;;;;;;5073899;28;20073;-76
2021/05/17 03:33:35;;;;;;;8.82;7.10;;;9.10;99.90;;;;;;5072454;28;20421;-76
2021/05/17 03:36:00;;;;;;;12.48;7.40;;;9.10;99.90;;;;;;5072554;28;20119;-76
2021/05/17 03:38:26;;;;;;;7.22;6.32;;;9.20;99.90;;;;;;5073688;28;20031;-76
2021/05/17 03:40:51;;;;;;;8.10;6.30;;;9.20;99.90;;;;;;5072486;28;20070;-76
2021/05/17 03:43:17;;;;;;;8.70;5.75;;;9.20;99.90;;;;;;5072303;28;20032;-76
2021/05/17 03:45:43;;;;;;;10.50;6.82;;;9.30;99.90;;;;;;5073674;28;20028;-76
2021/05/17 03:48:09;;;;;;;13.00;8.13;;;9.30;99.90;;;;;;5073596;28;20493;-76
2021/05/17 03:50:35;;;;;;;11.63;7.63;;;9.40;99.90;;;;;;5073514;28;20056;-77
2021/05/17 03:53:00;;;;;;;15.57;8.25;;;9.50;99.90;;;;;;5073412;28;20409;-77
2021/05/17 03:55:26;;;;;;;11.43;8.13;;;9.50;99.90;;;;;;5073360;28;20044;-77
2021/05/17 03:57:55;;;;;;;12.15;9.15;;;9.50;99.90;;;;;;5073359;28;20032;-77
2021/05/17 04:00:21;;;;;;;9.57;8.57;;;9.60;99.90;;;;;;5072115;28;20367;-77
2021/05/17 04:02:47;;;;;;;10.85;7.93;;;9.60;99.90;;;;;;5072026;28;20017;-77
2021/05/17 04:13:27;;;;;;;14.55;7.82;;;9.60;99.90;;;;;;5073345;28;20504;-77
2021/05/17 04:15:55;;;;;;;9.40;7.18;;;9.60;99.90;;;;;;5061956;28;20025;-76
2021/05/17 04:18:22;;;;;;;16.98;10.73;;;9.60;99.90;;;;;;5053024;28;20033;-77
2021/05/17 04:20:50;;;;;;;14.32;9.55;;;9.60;99.90;;;;;;5053072;28;20017;-77
2021/05/17 04:23:22;;;;;;;11.82;8.63;;;9.70;99.90;;;;;;5051688;28;20482;-77
2021/05/17 04:25:48;;;;;;;9.50;7.32;;;9.70;99.90;;;;;;5053036;28;20111;-77
2021/05/17 04:28:15;;;;;;;9.55;6.90;;;9.70;99.90;;;;;;5051642;28;20025;-77
2021/05/17 04:30:40;;;;;;;7.82;6.53;;;9.70;99.90;;;;;;5052945;28;20021;-77
2021/05/17 04:33:06;;;;;;;8.70;7.10;;;9.70;99.90;;;;;;5051525;28;20021;-77
2021/05/17 04:35:32;;;;;;;8.65;6.43;;;9.80;99.90;;;;;;5051574;28;20059;-77
2021/05/17 04:37:58;;;;;;;9.63;5.93;;;9.80;99.90;;;;;;5051544;28;20497;-77
2021/05/17 04:40:24;;;;;;;9.07;6.45;;;9.80;99.90;;;;;;5051581;28;20502;-77
2021/05/17 04:42:49;;;;;;;9.60;6.13;;;9.80;99.90;;;;;;5052784;28;20416;-77
2021/05/17 04:45:16;;;;;;;12.52;7.45;;;9.70;99.90;;;;;;5053492;28;20053;-77
2021/05/17 04:47:41;;;;;;;13.65;7.28;;;9.70;99.90;;;;;;5071417;28;20029;-76
2021/05/17 04:50:07;;;;;;;13.10;8.50;;;9.80;99.90;;;;;;5071510;28;20074;-77
2021/05/17 04:52:34;;;;;;;10.18;8.00;;;9.80;99.90;;;;;;5071379;28;20502;-77
2021/05/17 04:55:00;;;;;;;10.55;8.40;;;9.80;99.90;;;;;;5071317;28;20064;-77
2021/05/17 04:57:26;;;;;;;9.63;7.30;;;9.90;99.90;;;;;;5072633;28;20504;-76
2021/05/17 04:59:51;;;;;;;12.93;8.55;;;9.90;99.90;;;;;;5071366;28;20024;-77
2021/05/17 05:02:17;;;;;;;11.88;7.97;;;9.90;99.90;;;;;;5071336;28;20063;-77
2021/05/17 05:04:43;;;;;;;10.43;8.00;;;9.90;99.90;;;;;;5071358;28;20094;-77
2021/05/17 05:07:08;;;;;;;10.15;7.40;;;9.90;99.90;;;;;;5063721;28;20021;-76
2021/05/17 05:09:34;;;;;;;10.68;8.25;;;9.90;99.90;;;;;;5053502;28;20071;-77
2021/05/17 05:12:00;;;;;;;9.82;8.30;;;9.80;99.90;;;;;;5051246;28;20545;-76
2021/05/17 05:14:26;;;;;;;13.45;8.30;;;9.80;99.90;;;;;;5052434;28;20037;-76
2021/05/17 05:16:51;;;;;;;12.27;8.98;;;9.80;99.90;;;;;;5051360;28;20056;-76
2021/05/17 05:19:17;;;;;;;8.65;7.70;;;9.80;99.90;;;;;;5051170;28;20035;-76
2021/05/17 05:21:42;;;;;;;9.63;7.25;;;9.80;99.90;;;;;;5059860;28;20050;-76
2021/05/17 05:24:09;;;;;;;11.07;6.72;;;9.70;99.90;;;;;;5075000;28;20028;-76
2021/05/17 05:32:03;;;;;;;8.90;6.22;;;10.00;99.90;;;;;;5076416;28;20036;-76
2021/05/17 05:34:29;;;;;;;8.48;6.47;;;10.00;99.90;;;;;;5061288;28;20056;-76
2021/05/17 05:36:58;;;;;;;8.77;6.20;;;10.00;99.90;;;;;;5054902;28;20029;-76
2021/05/17 05:39:25;;;;;;;13.48;7.55;;;10.00;99.90;;;;;;5054749;28;20028;-76
2021/05/17 05:41:51;;;;;;;9.65;6.88;;;10.00;99.90;;;;;;5054694;28;20476;-76
2021/05/17 05:44:16;;;;;;;9.48;6.90;;;10.10;99.90;;;;;;5066692;28;20025;-76
2021/05/17 05:46:42;;;;;;;9.68;7.00;;;10.10;99.90;;;;;;5067517;28;20024;-76
2021/05/17 05:49:08;;;;;;;11.27;7.53;;;10.20;99.90;;;;;;5064631;28;20431;-75
2021/05/17 05:51:34;;;;;;;9.88;7.68;;;10.30;99.90;;;;;;5064218;28;20025;-76
2021/05/17 05:54:00;;;;;;;19.05;12.27;;;10.40;99.90;;;;;;5062664;28;20074;-76
2021/05/17 05:56:26;;;;;;;8.85;5.95;;;10.50;99.90;;;;;;5061020;28;20039;-76
2021/05/17 05:58:52;;;;;;;10.13;6.55;;;10.40;99.90;;;;;;5063199;28;20031;-75
2021/05/17 06:01:18;;;;;;;7.78;6.13;;;10.40;99.90;;;;;;5066205;28;20020;-77
2021/05/17 06:03:44;;;;;;;8.57;6.50;;;10.40;99.90;;;;;;5074300;28;20020;-77
2021/05/17 06:06:11;;;;;;;8.77;5.95;;;10.40;99.90;;;;;;5073411;28;20071;-76
2021/05/17 06:08:40;;;;;;;14.35;7.95;;;10.40;99.90;;;;;;5073794;28;20024;-76
2021/05/17 06:11:07;;;;;;;22.80;16.25;;;10.30;99.90;;;;;;5073883;28;20107;-75
2021/05/17 06:13:35;;;;;;;10.65;7.35;;;10.30;99.90;;;;;;5066377;28;20036;-76
2021/05/17 06:16:01;;;;;;;8.05;6.72;;;10.40;99.90;;;;;;5062366;28;20017;-76
2021/05/17 06:18:27;;;;;;;27.38;15.18;;;10.50;99.90;;;;;;5062536;28;20032;-76
2021/05/17 06:20:54;;;;;;;18.38;10.90;;;10.70;99.90;;;;;;5064753;28;20021;-76
2021/05/17 06:23:21;;;;;;;11.63;8.70;;;10.70;99.90;;;;;;5062287;28;20433;-77
2021/05/17 06:25:47;;;;;;;8.88;6.55;;;10.70;99.90;;;;;;5063909;28;20019;-76
2021/05/17 06:28:13;;;;;;;8.05;5.47;;;10.70;99.90;;;;;;5067693;28;20024;-76
2021/05/17 06:30:44;;;;;;;9.80;6.13;;;10.80;99.90;;;;;;5057890;28;20383;-76
2021/05/17 06:33:11;;;;;;;8.00;5.70;;;10.90;99.90;;;;;;5052312;28;20620;-76
2021/05/17 06:35:49;;;;;;;6.85;5.88;;;10.90;99.90;;;;;;5053606;28;20375;-77
2021/05/17 06:38:16;;;;;;;7.50;5.93;;;10.90;99.90;;;;;;5053667;28;20364;-76
2021/05/17 06:40:42;;;;;;;8.77;6.30;;;10.90;99.90;;;;;;5057667;28;20062;-76
2021/05/17 06:43:08;;;;;;;8.57;6.15;;;11.00;99.90;;;;;;5065575;28;20025;-76
2021/05/17 06:45:35;;;;;;;11.40;6.50;;;11.00;99.90;;;;;;5064799;28;20021;-77
2021/05/17 06:48:01;;;;;;;8.35;5.95;;;11.00;99.90;;;;;;5069657;28;20029;-77
2021/05/17 06:50:27;;;;;;;7.50;6.38;;;11.00;99.90;;;;;;5067433;28;20435;-77
2021/05/17 06:52:53;;;;;;;10.00;5.57;;;11.10;99.90;;;;;;5069478;28;20039;-76
2021/05/17 06:55:22;;;;;;;6.93;4.93;;;11.10;99.90;;;;;;5069227;28;20020;-77
2021/05/17 07:00:28;;;;;;;6.82;5.38;;;11.20;99.90;;;;;;5069479;28;20170;-77
2021/05/17 07:02:57;;;;;;;10.20;5.40;;;11.20;99.90;;;;;;5069491;28;20490;-77
2021/05/17 07:05:23;;;;;;;10.65;5.82;;;11.30;99.90;;;;;;5071241;28;20067;-77
2021/05/17 07:13:00;;;;;;;5.35;4.03;;;11.60;99.90;;;;;;5073881;28;20158;-76
2021/05/17 07:15:26;;;;;;;6.28;5.25;;;11.70;99.90;;;;;;5070104;28;20127;-76
2021/05/17 07:17:51;;;;;;;7.75;4.57;;;11.80;99.90;;;;;;5072217;28;20024;-77
2021/05/17 07:20:22;;;;;;;4.78;4.28;;;11.90;99.90;;;;;;5072325;28;20397;-77
2021/05/17 07:25:32;;;;;;;5.10;4.55;;;12.10;99.90;;;;;;5073263;28;20097;-77
2021/05/17 07:27:58;;;;;;;10.57;5.00;;;12.20;99.90;;;;;;5072182;28;20024;-77
2021/05/17 07:30:26;;;;;;;7.82;5.22;;;12.40;99.90;;;;;;5071880;28;20149;-77
2021/05/17 07:32:51;;;;;;;9.02;5.45;;;12.40;99.90;;;;;;5071847;28;20025;-77
2021/05/17 07:35:17;;;;;;;6.82;5.10;;;12.50;99.90;;;;;;5071548;28;20501;-76
2021/05/17 07:37:42;;;;;;;5.35;4.75;;;12.60;99.90;;;;;;5071790;28;20556;-76
2021/05/17 07:40:09;;;;;;;9.27;5.20;;;12.70;99.90;;;;;;5071752;28;20024;-76
2021/05/17 07:42:35;;;;;;;6.13;4.60;;;12.80;99.90;;;;;;5073216;28;20432;-76
2021/05/17 07:45:03;;;;;;;3.55;3.10;;;12.90;99.90;;;;;;5071577;28;20017;-77
2021/05/17 07:47:28;;;;;;;4.50;3.95;;;12.90;99.90;;;;;;5072897;28;20020;-77
2021/05/17 07:49:55;;;;;;;6.53;3.35;;;13.00;99.90;;;;;;5071834;28;20025;-77
2021/05/17 07:52:21;;;;;;;5.10;3.63;;;13.10;99.90;;;;;;5071596;28;20082;-78
2021/05/17 07:54:47;;;;;;;6.13;4.40;;;13.10;99.90;;;;;;5070211;28;20044;-78
2021/05/17 07:57:14;;;;;;;5.85;3.92;;;13.30;99.90;;;;;;5072635;28;20466;-77
2021/05/17 07:59:39;;;;;;;3.97;3.58;;;13.40;99.90;;;;;;5069817;28;20020;-77
2021/05/17 08:02:05;;;;;;;9.25;3.85;;;13.60;99.90;;;;;;5069710;28;20024;-77
2021/05/17 08:04:31;;;;;;;4.10;3.55;;;13.70;99.90;;;;;;5067193;28;21777;-77
2021/05/17 08:06:57;;;;;;;5.07;3.42;;;13.80;99.90;;;;;;5071214;28;20032;-77
2021/05/17 08:09:23;;;;;;;5.20;4.10;;;14.00;99.90;;;;;;5072267;28;20028;-78
2021/05/17 08:11:50;;;;;;;4.25;3.28;;;14.20;99.90;;;;;;5069767;28;20028;-79
2021/05/17 08:14:17;;;;;;;6.38;3.35;;;14.40;99.90;;;;;;5071024;28;20164;-77
2021/05/17 08:16:43;;;;;;;4.47;3.03;;;14.60;99.90;;;;;;5071176;28;20356;-77
2021/05/17 08:19:08;;;;;;;6.43;3.17;;;14.90;99.90;;;;;;5071000;28;20073;-77
2021/05/17 08:21:34;;;;;;;5.93;4.45;;;15.30;93.60;;;;;;5071088;28;20398;-77
2021/05/17 08:24:00;;;;;;;4.78;2.35;;;15.50;87.70;;;;;;5070412;28;20024;-76
2021/05/17 08:26:26;;;;;;;4.47;2.70;;;15.90;83.00;;;;;;5070082;28;20398;-77
2021/05/17 08:28:54;;;;;;;3.63;2.25;;;16.30;86.40;;;;;;5069295;28;20040;-76
2021/05/17 08:31:22;;;;;;;3.15;2.10;;;16.60;85.90;;;;;;5071810;28;20028;-78
2021/05/17 08:33:49;;;;;;;3.10;1.58;;;16.90;79.20;;;;;;5067302;28;20036;-78
2021/05/17 08:36:14;;;;;;;1.65;1.55;;;17.10;72.30;;;;;;5072329;28;20428;-78
2021/05/17 08:38:40;;;;;;;1.50;1.40;;;17.10;66.20;;;;;;5068544;28;20017;-77
2021/05/17 08:41:07;;;;;;;1.75;1.50;;;17.20;69.90;;;;;;5051443;28;20070;-77
2021/05/17 08:43:36;;;;;;;3.00;1.60;;;17.10;67.40;;;;;;5069584;28;20032;-78
2021/05/17 08:46:03;;;;;;;2.30;1.30;;;17.00;67.30;;;;;;5071012;28;20025;-77
2021/05/17 08:48:28;;;;;;;4.18;2.00;;;17.00;68.50;;;;;;5067003;28;20050;-77
2021/05/17 08:50:54;;;;;;;2.08;1.48;;;17.10;72.70;;;;;;5070793;28;20021;-77
2021/05/17 08:53:20;;;;;;;2.50;1.27;;;17.00;68.20;;;;;;5070195;28;20059;-78
2021/05/17 08:55:45;;;;;;;2.83;1.60;;;17.00;67.50;;;;;;5072101;28;20032;-78
2021/05/17 08:58:11;;;;;;;1.55;1.42;;;17.10;66.90;;;;;;5074911;28;20035;-78
2021/05/17 09:00:37;;;;;;;1.20;1.10;;;17.30;73.40;;;;;;5074924;28;20017;-78
2021/05/17 09:03:03;;;;;;;1.05;1.02;;;17.50;64.80;;;;;;5074369;28;20375;-78
2021/05/17 09:05:36;;;;;;;2.25;1.70;;;17.50;60.70;;;;;;5072808;28;20094;-79
2021/05/17 09:08:03;;;;;;;2.25;1.70;;;17.70;63.80;;;;;;5073842;28;20028;-79
2021/05/17 09:10:31;;;;;;;3.05;2.00;;;17.90;66.20;;;;;;5075220;28;20021;-79
2021/05/17 09:13:12;;;;;;;2.78;1.85;;;18.10;68.90;;;;;;5073674;28;20115;-79
2021/05/17 09:15:44;;;;;;;5.55;1.63;;;18.10;65.60;;;;;;5073268;28;20063;-79
2021/05/17 09:18:13;;;;;;;4.45;1.70;;;18.20;65.00;;;;;;5070350;28;20086;-79
2021/05/17 09:20:41;;;;;;;6.97;1.65;;;18.30;68.50;;;;;;5075876;28;20041;-79
2021/05/17 09:23:11;;;;;;;3.03;1.83;;;18.40;66.90;;;;;;5075677;28;20103;-79
2021/05/17 09:25:38;;;;;;;3.17;2.00;;;18.40;69.00;;;;;;5074230;28;20032;-78
2021/05/17 09:28:07;;;;;;;2.33;1.42;;;18.30;65.00;;;;;;5074287;28;20039;-77
2021/05/17 09:30:46;;;;;;;2.55;1.90;;;18.10;63.90;;;;;;5074214;28;20032;-77
2021/05/17 09:33:17;;;;;;;2.50;1.60;;;18.00;67.20;;;;;;5070620;28;20386;-77
2021/05/17 09:35:45;;;;;;;3.58;2.05;;;17.90;68.50;;;;;;5070394;28;20401;-78
2021/05/17 09:38:24;;;;;;;1.60;1.50;;;17.80;67.50;;;;;;5072849;28;20024;-78
2021/05/17 09:41:03;;;;;;;3.78;2.67;;;17.50;65.90;;;;;;5071100;28;20028;-78
2021/05/17 09:43:29;;;;;;;10.82;4.53;;;17.30;66.90;;;;;;5073630;28;20048;-78
2021/05/17 09:45:55;;;;;;;8.90;4.70;;;17.30;68.90;;;;;;5057314;28;20028;-78
2021/05/17 09:48:23;;;;;;;2.35;1.80;;;17.30;69.70;;;;;;5070418;28;20063;-78
2021/05/17 09:50:55;;;;;;;1.90;1.80;;;17.30;71.90;;;;;;5072667;28;20055;-78
2021/05/17 09:53:23;;;;;;;3.90;1.90;;;17.20;70.40;;;;;;5070426;28;20032;-78
2021/05/17 09:55:49;;;;;;;1.38;1.27;;;17.10;72.70;;;;;;5073605;28;20115;-79
2021/05/17 09:58:33;;;;;;;2.92;2.20;;;16.90;72.00;;;;;;5073642;28;20055;-78
2021/05/17 10:01:15;;;;;;;5.93;3.53;;;16.80;69.80;;;;;;5071355;28;20020;-80
2021/05/17 10:03:44;;;;;;;2.10;1.88;;;16.80;72.70;;;;;;5073638;28;20048;-79
2021/05/17 10:06:21;;;;;;;3.35;1.75;;;16.70;77.10;;;;;;5074611;28;20033;-79
2021/05/17 10:08:47;;;;;;;3.97;2.70;;;16.50;76.30;;;;;;5074976;28;20028;-79
2021/05/17 10:11:13;;;;;;;2.72;2.08;;;16.30;79.20;;;;;;5071246;28;20012;-79
2021/05/17 10:13:40;;;;;;;2.45;2.25;;;16.00;80.80;;;;;;5073291;28;20068;-79
2021/05/17 10:16:09;;;;;;;6.22;2.30;;;15.80;82.10;;;;;;5073440;28;20097;-79
2021/05/17 10:18:36;;;;;;;2.17;1.98;;;15.60;85.20;;;;;;5073517;28;20032;-79
2021/05/17 10:21:04;;;;;;;4.30;2.53;;;15.50;85.20;;;;;;5071929;28;20482;-79
2021/05/17 10:23:30;;;;;;;4.43;2.20;;;15.40;86.90;;;;;;5072502;28;20021;-79
2021/05/17 10:26:06;;;;;;;4.55;2.17;;;15.40;90.40;;;;;;5073369;28;20040;-78
2021/05/17 10:28:32;;;;;;;2.72;2.15;;;15.30;91.30;;;;;;5074504;28;20066;-78
2021/05/17 10:31:14;;;;;;;2.88;2.45;;;15.20;93.10;;;;;;5071977;28;20111;-77
2021/05/17 10:33:42;;;;;;;4.33;2.70;;;15.20;96.00;;;;;;5070678;28;20029;-78
2021/05/17 10:36:09;;;;;;;3.75;2.67;;;15.10;95.20;;;;;;5073758;28;20786;-80
2021/05/17 10:38:45;;;;;;;4.13;2.63;;;15.00;97.70;;;;;;5072899;28;20025;-80
2021/05/17 10:41:15;;;;;;;4.03;2.88;;;14.90;99.90;;;;;;5073059;28;20024;-80
2021/05/17 10:46:46;;;;;;;5.60;3.63;;;14.70;99.90;;;;;;5073966;28;20036;-81
2021/05/17 10:49:32;;;;;;;26.60;12.45;;;14.60;99.90;;;;;;5069428;28;20081;-83
2021/05/17 10:52:03;;;;;;;42.45;27.90;;;14.30;98.10;;;;;;5072226;28;20028;-82
2021/05/17 10:54:42;;;;;;;51.10;40.83;;;14.00;99.20;;;;;;5071601;28;20082;-82
2021/05/17 10:57:41;;;;;;;45.08;36.58;;;14.00;99.90;;;;;;5072788;28;20423;-82
2021/05/17 11:00:23;;;;;;;43.78;25.23;;;14.00;99.90;;;;;;5073976;28;20028;-83
2021/05/17 11:03:13;;;;;;;48.08;24.58;;;14.10;99.90;;;;;;5070333;28;20043;-82
2021/05/17 11:05:41;;;;;;;40.88;20.25;;;14.10;99.90;;;;;;5066882;28;20432;-82
2021/05/17 11:08:12;;;;;;;13.40;6.68;;;14.20;99.90;;;;;;5073524;28;20047;-84
2021/05/17 11:10:39;;;;;;;21.33;12.43;;;14.10;99.90;;;;;;5068554;28;20419;-83
2021/05/17 11:13:14;;;;;;;18.75;10.57;;;14.10;99.90;;;;;;5072176;28;20058;-83
2021/05/17 11:15:43;;;;;;;4.75;3.30;;;14.10;99.90;;;;;;5072582;28;20489;-84
2021/05/17 11:18:08;;;;;;;5.40;3.42;;;14.10;99.90;;;;;;5070403;28;20048;-84
2021/05/17 11:20:40;;;;;;;7.47;4.65;;;14.10;99.90;;;;;;5071518;28;20467;-83
2021/05/17 11:23:06;;;;;;;9.23;5.95;;;14.20;99.90;;;;;;5071928;28;20037;-82
2021/05/17 11:25:56;;;;;;;10.50;7.22;;;14.40;99.90;;;;;;5073635;28;20028;-83
2021/05/17 11:28:37;;;;;;;11.88;7.40;;;14.30;99.90;;;;;;5070849;28;20040;-82
2021/05/17 11:31:35;;;;;;;13.98;8.07;;;14.20;99.90;;;;;;5071912;28;20081;-82
2021/05/17 11:34:01;;;;;;;10.95;6.50;;;14.10;99.90;;;;;;5071186;28;20111;-82
2021/05/17 11:36:31;;;;;;;8.80;6.00;;;14.00;99.90;;;;;;5072969;28;20108;-80
2021/05/17 11:41:37;;;;;;;8.50;5.55;;;13.80;99.90;;;;;;5073346;28;20034;-81
2021/05/17 11:44:05;;;;;;;5.88;4.20;;;13.80;99.90;;;;;;5071380;28;20032;-79
2021/05/17 11:46:32;;;;;;;8.77;5.10;;;13.80;99.90;;;;;;5071451;28;20025;-79
2021/05/17 11:48:58;;;;;;;7.35;5.43;;;13.90;99.90;;;;;;5070668;28;20482;-80
2021/05/17 11:51:25;;;;;;;14.38;7.30;;;14.00;99.90;;;;;;5070367;28;20031;-80
2021/05/17 11:53:52;;;;;;;6.63;4.55;;;14.10;99.90;;;;;;5072515;28;20177;-79
2021/05/17 11:56:18;;;;;;;6.65;3.92;;;14.30;99.90;;;;;;5071377;28;20027;-80
2021/05/17 11:58:43;;;;;;;8.93;3.50;;;14.20;99.90;;;;;;5071314;28;20025;-80
2021/05/17 12:01:24;;;;;;;5.70;3.63;;;14.10;99.90;;;;;;5070180;28;20154;-80
2021/05/17 12:03:49;;;;;;;10.10;5.68;;;14.00;99.90;;;;;;5070581;28;20055;-80
2021/05/17 12:06:15;;;;;;;20.17;9.45;;;14.00;99.90;;;;;;5072929;28;20113;-79
2021/05/17 12:08:41;;;;;;;8.00;4.40;;;14.00;99.90;;;;;;5071137;28;20024;-79
2021/05/17 12:11:13;;;;;;;15.63;9.43;;;14.00;99.90;;;;;;5072153;28;20039;-80
2021/05/17 12:13:46;;;;;;;11.20;5.88;;;13.90;99.90;;;;;;5070044;28;20074;-80
2021/05/17 12:16:25;;;;;;;17.60;10.27;;;13.90;99.90;;;;;;5071104;28;20020;-80
2021/05/17 12:19:03;;;;;;;30.50;12.55;;;13.90;99.90;;;;;;5071824;28;20100;-79
2021/05/17 12:21:34;;;;;;;49.03;19.38;;;13.90;99.90;;;;;;5072467;28;20100;-79
2021/05/17 12:24:00;;;;;;;30.92;15.25;;;13.90;99.90;;;;;;5066527;28;20016;-81
2021/05/17 12:26:25;;;;;;;22.73;10.48;;;13.90;99.90;;;;;;5067738;28;20028;-80
2021/05/17 12:29:02;;;;;;;29.23;11.82;;;13.80;99.90;;;;;;5066577;28;20081;-79
2021/05/17 12:31:28;;;;;;;35.75;13.77;;;13.80;99.90;;;;;;5066200;28;20473;-78
2021/05/17 12:33:54;;;;;;;20.05;7.85;;;13.80;99.90;;;;;;5065633;28;20551;-79
2021/05/17 12:36:20;;;;;;;13.43;6.43;;;13.70;99.90;;;;;;5069970;28;20413;-78
2021/05/17 12:38:46;;;;;;;12.32;5.60;;;13.80;99.90;;;;;;5070741;28;20021;-79
2021/05/17 12:41:32;;;;;;;8.30;4.95;;;13.80;99.90;;;;;;5070790;28;20482;-78
2021/05/17 12:43:58;;;;;;;15.48;8.80;;;13.60;99.90;;;;;;5071498;28;20052;-79
2021/05/17 12:46:28;;;;;;;17.73;8.68;;;13.70;99.90;;;;;;5069757;28;20526;-79
2021/05/17 12:48:54;;;;;;;24.95;12.85;;;13.60;99.90;;;;;;5070651;28;20046;-79
2021/05/17 12:51:28;;;;;;;19.98;9.73;;;13.60;99.90;;;;;;5070434;28;20496;-79
2021/05/17 12:54:16;;;;;;;26.77;14.48;;;13.50;99.90;;;;;;5070391;28;20120;-78
2021/05/17 12:56:42;;;;;;;8.27;5.53;;;13.50;99.90;;;;;;5069364;28;20017;-78
2021/05/17 12:59:10;;;;;;;6.57;4.13;;;13.40;99.90;;;;;;5071795;28;20029;-78
2021/05/17 13:01:36;;;;;;;6.85;4.70;;;13.30;99.90;;;;;;5070639;28;20048;-78
2021/05/17 13:04:03;;;;;;;8.23;5.13;;;13.20;99.90;;;;;;5069904;28;20066;-78
2021/05/17 13:06:30;;;;;;;4.85;3.97;;;13.20;99.90;;;;;;5069915;28;20032;-78
2021/05/17 13:09:07;;;;;;;6.82;4.97;;;13.20;99.90;;;;;;5070292;28;20025;-78
2021/05/17 13:11:41;;;;;;;8.73;4.60;;;13.20;99.90;;;;;;5069459;28;20118;-78
2021/05/17 13:14:12;;;;;;;8.23;5.43;;;13.10;99.90;;;;;;5071502;28;20082;-77
2021/05/17 13:16:39;;;;;;;13.32;9.23;;;13.10;99.90;;;;;;5070480;28;20017;-78
2021/05/17 13:25:29;;;;;;;24.33;14.25;;;13.00;99.90;;;;;;5070101;28;20020;-79
2021/05/17 13:30:32;;;;;;;48.13;24.48;;;13.10;99.90;;;;;;5067972;28;20040;-78
2021/05/17 13:32:58;;;;;;;37.80;18.90;;;13.10;99.90;;;;;;5070465;28;20032;-79